sensor_id;sensor_type;location;lat;lon;timestamp;temperature;humidity
50548;DHT22;38013;48.810;8.818;2023-02-01T00:00:31;6.40;73.90
50548;DHT22;38013;48.810;8.818;2023-02-01T00:02:59;6.50;74.00
50548;DHT22;38013;48.810;8.818;2023-02-01T00:05:26;6.50;74.10
50548;DHT22;38013;48.810;8.818;2023-02-01T00:07:53;6.50;74.00
50548;DHT22;38013;48.810;8.818;2023-02-01T00:10:20;6.50;73.90
50548;DHT22;38013;48.810;8.818;2023-02-01T00:12:47;6.50;74.10
50548;DHT22;38013;48.810;8.818;2023-02-01T00:15:13;6.50;74.00
50548;DHT22;38013;48.810;8.818;2023-02-01T00:17:40;6.50;74.20
50548;DHT22;38013;48.810;8.818;2023-02-01T00:20:07;6.50;74.60
50548;DHT22;38013;48.810;8.818;2023-02-01T00:22:35;6.50;74.00
50548;DHT22;38013;48.810;8.818;2023-02-01T00:25:01;6.50;73.90
50548;DHT22;38013;48.810;8.818;2023-02-01T00:27:28;6.50;73.80
50548;DHT22;38013;48.810;8.818;2023-02-01T00:29:55;6.50;74.00
50548;DHT22;38013;48.810;8.818;2023-02-01T00:32:22;6.50;74.00
50548;DHT22;38013;48.810;8.818;2023-02-01T00:34:48;6.50;74.00
50548;DHT22;38013;48.810;8.818;2023-02-01T00:37:15;6.40;73.90
50548;DHT22;38013;48.810;8.818;2023-02-01T00:39:42;6.50;74.00
50548;DHT22;38013;48.810;8.818;2023-02-01T00:42:09;6.50;74.00
50548;DHT22;38013;48.810;8.818;2023-02-01T00:44:36;6.50;73.80
50548;DHT22;38013;48.810;8.818;2023-02-01T00:47:03;6.50;73.90
50548;DHT22;38013;48.810;8.818;2023-02-01T00:49:29;6.50;73.90
50548;DHT22;38013;48.810;8.818;2023-02-01T00:51:56;6.50;73.80
50548;DHT22;38013;48.810;8.818;2023-02-01T00:54:23;6.60;73.80
50548;DHT22;38013;48.810;8.818;2023-02-01T00:56:50;6.60;73.80
50548;DHT22;38013;48.810;8.818;2023-02-01T00:59:18;6.60;73.70
50548;DHT22;38013;48.810;8.818;2023-02-01T01:01:44;6.60;73.70
50548;DHT22;38013;48.810;8.818;2023-02-01T01:04:12;6.70;73.70
50548;DHT22;38013;48.810;8.818;2023-02-01T01:06:39;6.70;73.50
50548;DHT22;38013;48.810;8.818;2023-02-01T01:09:06;6.70;73.40
50548;DHT22;38013;48.810;8.818;2023-02-01T01:11:35;6.70;73.30
50548;DHT22;38013;48.810;8.818;2023-02-01T01:14:04;6.70;73.20
50548;DHT22;38013;48.810;8.818;2023-02-01T01:16:32;6.70;73.20
50548;DHT22;38013;48.810;8.818;2023-02-01T01:19:00;6.70;73.10
50548;DHT22;38013;48.810;8.818;2023-02-01T01:21:27;6.70;73.00
50548;DHT22;38013;48.810;8.818;2023-02-01T01:23:54;6.70;73.00
50548;DHT22;38013;48.810;8.818;2023-02-01T01:26:22;6.70;73.00
50548;DHT22;38013;48.810;8.818;2023-02-01T01:28:50;6.70;73.00
50548;DHT22;38013;48.810;8.818;2023-02-01T01:31:18;6.70;73.00
50548;DHT22;38013;48.810;8.818;2023-02-01T01:33:53;6.70;73.00
50548;DHT22;38013;48.810;8.818;2023-02-01T01:36:21;6.70;73.10
50548;DHT22;38013;48.810;8.818;2023-02-01T01:38:48;6.60;73.20
50548;DHT22;38013;48.810;8.818;2023-02-01T01:41:17;6.70;73.20
50548;DHT22;38013;48.810;8.818;2023-02-01T01:44:00;6.60;73.40
50548;DHT22;38013;48.810;8.818;2023-02-01T01:46:30;6.70;73.40
50548;DHT22;38013;48.810;8.818;2023-02-01T01:49:03;6.60;73.30
50548;DHT22;38013;48.810;8.818;2023-02-01T01:51:33;6.60;73.20
50548;DHT22;38013;48.810;8.818;2023-02-01T01:54:10;6.60;73.20
50548;DHT22;38013;48.810;8.818;2023-02-01T01:56:40;6.60;73.20
50548;DHT22;38013;48.810;8.818;2023-02-01T01:59:07;6.60;73.10
50548;DHT22;38013;48.810;8.818;2023-02-01T02:01:34;6.60;73.00
50548;DHT22;38013;48.810;8.818;2023-02-01T02:04:01;6.60;73.00
50548;DHT22;38013;48.810;8.818;2023-02-01T02:09:11;6.60;73.00
50548;DHT22;38013;48.810;8.818;2023-02-01T02:11:38;6.60;73.00
50548;DHT22;38013;48.810;8.818;2023-02-01T02:14:07;6.60;73.00
50548;DHT22;38013;48.810;8.818;2023-02-01T02:22:13;6.60;73.10
50548;DHT22;38013;48.810;8.818;2023-02-01T02:34:06;6.60;73.50
50548;DHT22;38013;48.810;8.818;2023-02-01T02:42:12;6.60;73.30
50548;DHT22;38013;48.810;8.818;2023-02-01T02:45:17;6.70;73.30
50548;DHT22;38013;48.810;8.818;2023-02-01T02:48:09;6.60;73.20
50548;DHT22;38013;48.810;8.818;2023-02-01T02:50:44;6.70;73.30
50548;DHT22;38013;48.810;8.818;2023-02-01T02:56:24;6.70;73.20
50548;DHT22;38013;48.810;8.818;2023-02-01T02:59:12;6.70;73.30
50548;DHT22;38013;48.810;8.818;2023-02-01T03:02:00;6.70;73.40
50548;DHT22;38013;48.810;8.818;2023-02-01T03:04:45;6.70;73.40
50548;DHT22;38013;48.810;8.818;2023-02-01T03:07:46;6.70;73.40
50548;DHT22;38013;48.810;8.818;2023-02-01T03:10:18;6.70;73.30
50548;DHT22;38013;48.810;8.818;2023-02-01T03:12:53;6.70;73.20
50548;DHT22;38013;48.810;8.818;2023-02-01T03:15:31;6.70;73.30
50548;DHT22;38013;48.810;8.818;2023-02-01T03:18:01;6.70;73.30
50548;DHT22;38013;48.810;8.818;2023-02-01T03:20:33;6.70;73.30
50548;DHT22;38013;48.810;8.818;2023-02-01T03:23:01;6.70;73.30
50548;DHT22;38013;48.810;8.818;2023-02-01T03:25:30;6.70;73.20
50548;DHT22;38013;48.810;8.818;2023-02-01T03:28:03;6.70;73.20
50548;DHT22;38013;48.810;8.818;2023-02-01T03:30:34;6.70;73.20
50548;DHT22;38013;48.810;8.818;2023-02-01T03:33:05;6.70;73.20
50548;DHT22;38013;48.810;8.818;2023-02-01T03:35:55;6.70;73.20
50548;DHT22;38013;48.810;8.818;2023-02-01T03:41:35;6.70;73.20
50548;DHT22;38013;48.810;8.818;2023-02-01T03:44:09;6.70;73.20
50548;DHT22;38013;48.810;8.818;2023-02-01T03:46:48;6.70;73.20
50548;DHT22;38013;48.810;8.818;2023-02-01T03:49:19;6.70;73.30
50548;DHT22;38013;48.810;8.818;2023-02-01T03:51:49;6.70;73.80
50548;DHT22;38013;48.810;8.818;2023-02-01T03:54:17;6.70;73.20
50548;DHT22;38013;48.810;8.818;2023-02-01T03:56:45;6.80;73.30
50548;DHT22;38013;48.810;8.818;2023-02-01T03:59:13;6.80;73.20
50548;DHT22;38013;48.810;8.818;2023-02-01T04:01:40;6.80;73.20
50548;DHT22;38013;48.810;8.818;2023-02-01T04:04:07;6.80;73.20
50548;DHT22;38013;48.810;8.818;2023-02-01T04:06:36;6.80;73.20
50548;DHT22;38013;48.810;8.818;2023-02-01T04:09:04;6.90;73.20
50548;DHT22;38013;48.810;8.818;2023-02-01T04:11:31;6.90;73.10
50548;DHT22;38013;48.810;8.818;2023-02-01T04:13:57;6.90;73.20
50548;DHT22;38013;48.810;8.818;2023-02-01T04:16:24;6.90;73.10
50548;DHT22;38013;48.810;8.818;2023-02-01T04:18:51;6.90;73.00
50548;DHT22;38013;48.810;8.818;2023-02-01T04:21:21;7.00;73.20
50548;DHT22;38013;48.810;8.818;2023-02-01T04:23:47;7.00;73.10
50548;DHT22;38013;48.810;8.818;2023-02-01T04:26:14;7.00;73.10
50548;DHT22;38013;48.810;8.818;2023-02-01T04:28:42;7.00;73.10
50548;DHT22;38013;48.810;8.818;2023-02-01T04:31:09;7.00;73.00
50548;DHT22;38013;48.810;8.818;2023-02-01T04:33:36;7.00;72.80
50548;DHT22;38013;48.810;8.818;2023-02-01T04:36:03;7.10;72.90
50548;DHT22;38013;48.810;8.818;2023-02-01T04:38:30;7.10;72.60
50548;DHT22;38013;48.810;8.818;2023-02-01T04:40:58;7.10;72.60
50548;DHT22;38013;48.810;8.818;2023-02-01T04:43:25;7.10;72.40
50548;DHT22;38013;48.810;8.818;2023-02-01T04:45:52;7.10;72.30
50548;DHT22;38013;48.810;8.818;2023-02-01T04:48:20;7.10;72.40
50548;DHT22;38013;48.810;8.818;2023-02-01T04:50:50;7.10;73.10
50548;DHT22;38013;48.810;8.818;2023-02-01T04:53:17;7.00;72.40
50548;DHT22;38013;48.810;8.818;2023-02-01T04:55:44;7.10;72.70
50548;DHT22;38013;48.810;8.818;2023-02-01T04:58:10;7.10;72.50
50548;DHT22;38013;48.810;8.818;2023-02-01T05:00:37;7.10;72.60
50548;DHT22;38013;48.810;8.818;2023-02-01T05:03:04;7.10;72.60
50548;DHT22;38013;48.810;8.818;2023-02-01T05:05:31;7.10;72.60
50548;DHT22;38013;48.810;8.818;2023-02-01T05:07:58;7.10;72.50
50548;DHT22;38013;48.810;8.818;2023-02-01T05:10:25;7.10;72.60
50548;DHT22;38013;48.810;8.818;2023-02-01T05:12:52;7.10;72.60
50548;DHT22;38013;48.810;8.818;2023-02-01T05:15:37;7.20;72.50
50548;DHT22;38013;48.810;8.818;2023-02-01T05:18:04;7.20;72.50
50548;DHT22;38013;48.810;8.818;2023-02-01T05:20:30;7.20;72.50
50548;DHT22;38013;48.810;8.818;2023-02-01T05:22:57;7.20;72.50
50548;DHT22;38013;48.810;8.818;2023-02-01T05:25:24;7.20;72.60
50548;DHT22;38013;48.810;8.818;2023-02-01T05:27:51;7.20;72.70
50548;DHT22;38013;48.810;8.818;2023-02-01T05:30:17;7.20;72.70
50548;DHT22;38013;48.810;8.818;2023-02-01T05:32:44;7.10;72.60
50548;DHT22;38013;48.810;8.818;2023-02-01T05:35:11;7.10;72.70
50548;DHT22;38013;48.810;8.818;2023-02-01T05:37:38;7.10;73.20
50548;DHT22;38013;48.810;8.818;2023-02-01T05:40:05;7.00;73.10
50548;DHT22;38013;48.810;8.818;2023-02-01T05:42:32;7.00;73.20
50548;DHT22;38013;48.810;8.818;2023-02-01T05:44:59;6.90;73.40
50548;DHT22;38013;48.810;8.818;2023-02-01T05:47:25;6.90;73.70
50548;DHT22;38013;48.810;8.818;2023-02-01T05:49:52;6.80;73.40
50548;DHT22;38013;48.810;8.818;2023-02-01T05:52:19;6.80;73.50
50548;DHT22;38013;48.810;8.818;2023-02-01T05:54:46;6.80;73.60
50548;DHT22;38013;48.810;8.818;2023-02-01T05:57:13;6.80;73.60
50548;DHT22;38013;48.810;8.818;2023-02-01T05:59:40;6.70;73.90
50548;DHT22;38013;48.810;8.818;2023-02-01T06:02:14;6.70;73.80
50548;DHT22;38013;48.810;8.818;2023-02-01T06:04:41;6.70;73.70
50548;DHT22;38013;48.810;8.818;2023-02-01T06:07:08;6.70;74.00
50548;DHT22;38013;48.810;8.818;2023-02-01T06:09:36;6.70;74.10
50548;DHT22;38013;48.810;8.818;2023-02-01T06:12:03;6.60;73.90
50548;DHT22;38013;48.810;8.818;2023-02-01T06:14:30;6.70;74.30
50548;DHT22;38013;48.810;8.818;2023-02-01T06:16:57;6.70;74.00
50548;DHT22;38013;48.810;8.818;2023-02-01T06:19:24;6.60;74.00
50548;DHT22;38013;48.810;8.818;2023-02-01T06:21:51;6.60;74.40
50548;DHT22;38013;48.810;8.818;2023-02-01T06:24:17;6.70;74.20
50548;DHT22;38013;48.810;8.818;2023-02-01T06:26:44;6.70;74.40
50548;DHT22;38013;48.810;8.818;2023-02-01T06:29:11;6.70;74.80
50548;DHT22;38013;48.810;8.818;2023-02-01T06:31:38;6.70;74.10
50548;DHT22;38013;48.810;8.818;2023-02-01T06:34:06;6.70;74.30
50548;DHT22;38013;48.810;8.818;2023-02-01T06:36:33;6.70;74.30
50548;DHT22;38013;48.810;8.818;2023-02-01T06:38:59;6.70;74.10
50548;DHT22;38013;48.810;8.818;2023-02-01T06:41:26;6.70;74.00
50548;DHT22;38013;48.810;8.818;2023-02-01T06:43:55;6.70;74.00
50548;DHT22;38013;48.810;8.818;2023-02-01T06:46:22;6.80;73.90
50548;DHT22;38013;48.810;8.818;2023-02-01T06:48:48;6.80;73.80
50548;DHT22;38013;48.810;8.818;2023-02-01T06:51:20;6.80;73.50
50548;DHT22;38013;48.810;8.818;2023-02-01T06:53:48;6.80;73.70
50548;DHT22;38013;48.810;8.818;2023-02-01T06:56:15;6.80;73.40
50548;DHT22;38013;48.810;8.818;2023-02-01T06:58:42;6.80;73.20
50548;DHT22;38013;48.810;8.818;2023-02-01T07:01:09;6.80;73.10
50548;DHT22;38013;48.810;8.818;2023-02-01T07:03:36;6.80;73.00
50548;DHT22;38013;48.810;8.818;2023-02-01T07:06:03;6.80;72.90
50548;DHT22;38013;48.810;8.818;2023-02-01T07:08:31;6.80;72.80
50548;DHT22;38013;48.810;8.818;2023-02-01T07:11:17;6.80;72.90
50548;DHT22;38013;48.810;8.818;2023-02-01T07:13:45;6.80;72.60
50548;DHT22;38013;48.810;8.818;2023-02-01T07:16:13;6.80;72.50
50548;DHT22;38013;48.810;8.818;2023-02-01T07:18:41;6.80;72.30
50548;DHT22;38013;48.810;8.818;2023-02-01T07:21:08;6.90;72.60
50548;DHT22;38013;48.810;8.818;2023-02-01T07:23:35;6.90;72.60
50548;DHT22;38013;48.810;8.818;2023-02-01T07:26:03;6.90;72.60
50548;DHT22;38013;48.810;8.818;2023-02-01T07:28:31;6.90;72.60
50548;DHT22;38013;48.810;8.818;2023-02-01T07:31:06;6.90;72.70
50548;DHT22;38013;48.810;8.818;2023-02-01T07:33:34;6.90;72.80
50548;DHT22;38013;48.810;8.818;2023-02-01T07:36:02;6.90;72.60
50548;DHT22;38013;48.810;8.818;2023-02-01T07:38:30;6.90;73.00
50548;DHT22;38013;48.810;8.818;2023-02-01T07:41:01;6.90;72.80
50548;DHT22;38013;48.810;8.818;2023-02-01T07:43:29;6.90;72.80
50548;DHT22;38013;48.810;8.818;2023-02-01T07:45:56;6.90;72.60
50548;DHT22;38013;48.810;8.818;2023-02-01T07:48:24;6.90;72.70
50548;DHT22;38013;48.810;8.818;2023-02-01T07:53:32;7.00;72.70
50548;DHT22;38013;48.810;8.818;2023-02-01T07:55:59;7.00;72.40
50548;DHT22;38013;48.810;8.818;2023-02-01T07:58:27;7.00;72.30
50548;DHT22;38013;48.810;8.818;2023-02-01T08:00:54;7.00;72.30
50548;DHT22;38013;48.810;8.818;2023-02-01T08:03:39;7.00;71.80
50548;DHT22;38013;48.810;8.818;2023-02-01T08:06:07;7.10;71.70
50548;DHT22;38013;48.810;8.818;2023-02-01T08:08:33;7.10;72.10
50548;DHT22;38013;48.810;8.818;2023-02-01T08:11:01;7.10;72.10
50548;DHT22;38013;48.810;8.818;2023-02-01T08:13:29;7.10;71.60
50548;DHT22;38013;48.810;8.818;2023-02-01T08:15:59;7.10;71.30
50548;DHT22;38013;48.810;8.818;2023-02-01T08:18:27;7.10;71.80
50548;DHT22;38013;48.810;8.818;2023-02-01T08:20:53;7.10;71.30
50548;DHT22;38013;48.810;8.818;2023-02-01T08:23:21;7.20;71.30
50548;DHT22;38013;48.810;8.818;2023-02-01T08:25:48;7.20;71.40
50548;DHT22;38013;48.810;8.818;2023-02-01T08:28:15;7.20;71.20
50548;DHT22;38013;48.810;8.818;2023-02-01T08:30:42;7.20;71.10
50548;DHT22;38013;48.810;8.818;2023-02-01T08:33:09;7.20;71.50
50548;DHT22;38013;48.810;8.818;2023-02-01T08:35:36;7.20;71.50
50548;DHT22;38013;48.810;8.818;2023-02-01T08:38:09;7.20;71.40
50548;DHT22;38013;48.810;8.818;2023-02-01T08:40:36;7.20;71.00
50548;DHT22;38013;48.810;8.818;2023-02-01T08:43:03;7.30;71.60
50548;DHT22;38013;48.810;8.818;2023-02-01T08:45:29;7.30;71.50
50548;DHT22;38013;48.810;8.818;2023-02-01T08:47:56;7.30;71.40
50548;DHT22;38013;48.810;8.818;2023-02-01T08:50:24;7.40;71.30
50548;DHT22;38013;48.810;8.818;2023-02-01T08:52:52;7.30;71.30
50548;DHT22;38013;48.810;8.818;2023-02-01T08:55:19;7.40;71.10
50548;DHT22;38013;48.810;8.818;2023-02-01T08:57:46;7.30;71.10
50548;DHT22;38013;48.810;8.818;2023-02-01T09:00:14;7.30;71.00
50548;DHT22;38013;48.810;8.818;2023-02-01T09:02:42;7.30;71.00
50548;DHT22;38013;48.810;8.818;2023-02-01T09:05:09;7.40;70.80
50548;DHT22;38013;48.810;8.818;2023-02-01T09:07:37;7.30;70.70
50548;DHT22;38013;48.810;8.818;2023-02-01T09:10:04;7.40;71.10
50548;DHT22;38013;48.810;8.818;2023-02-01T09:12:32;7.40;70.60
50548;DHT22;38013;48.810;8.818;2023-02-01T09:14:59;7.30;71.20
50548;DHT22;38013;48.810;8.818;2023-02-01T09:17:27;7.30;70.60
50548;DHT22;38013;48.810;8.818;2023-02-01T09:19:55;7.30;70.80
50548;DHT22;38013;48.810;8.818;2023-02-01T09:22:21;7.30;70.00
50548;DHT22;38013;48.810;8.818;2023-02-01T09:24:48;7.30;70.20
50548;DHT22;38013;48.810;8.818;2023-02-01T09:27:15;7.30;70.20
50548;DHT22;38013;48.810;8.818;2023-02-01T09:29:42;7.30;69.80
50548;DHT22;38013;48.810;8.818;2023-02-01T09:32:09;7.30;70.30
50548;DHT22;38013;48.810;8.818;2023-02-01T09:34:35;7.30;69.60
50548;DHT22;38013;48.810;8.818;2023-02-01T09:37:02;7.30;69.40
50548;DHT22;38013;48.810;8.818;2023-02-01T09:39:29;7.30;70.10
50548;DHT22;38013;48.810;8.818;2023-02-01T09:42:15;7.30;69.70
50548;DHT22;38013;48.810;8.818;2023-02-01T09:47:19;7.40;69.40
50548;DHT22;38013;48.810;8.818;2023-02-01T09:49:52;7.40;69.00
50548;DHT22;38013;48.810;8.818;2023-02-01T09:52:25;7.40;69.50
50548;DHT22;38013;48.810;8.818;2023-02-01T09:54:56;7.40;69.90
50548;DHT22;38013;48.810;8.818;2023-02-01T09:57:31;7.50;68.90
50548;DHT22;38013;48.810;8.818;2023-02-01T10:00:07;7.50;69.30
50548;DHT22;38013;48.810;8.818;2023-02-01T10:02:41;7.50;68.50
50548;DHT22;38013;48.810;8.818;2023-02-01T10:05:12;7.50;68.20
50548;DHT22;38013;48.810;8.818;2023-02-01T10:12:44;7.50;67.70
50548;DHT22;38013;48.810;8.818;2023-02-01T10:26:23;7.50;67.50
50548;DHT22;38013;48.810;8.818;2023-02-01T10:28:52;7.60;67.70
50548;DHT22;38013;48.810;8.818;2023-02-01T10:31:22;7.60;68.40
50548;DHT22;38013;48.810;8.818;2023-02-01T10:33:55;7.60;68.10
50548;DHT22;38013;48.810;8.818;2023-02-01T10:36:40;7.60;67.40
50548;DHT22;38013;48.810;8.818;2023-02-01T10:39:08;7.60;68.10
50548;DHT22;38013;48.810;8.818;2023-02-01T10:41:36;7.60;67.90
50548;DHT22;38013;48.810;8.818;2023-02-01T10:44:07;7.60;68.00
50548;DHT22;38013;48.810;8.818;2023-02-01T10:46:38;7.60;67.60
50548;DHT22;38013;48.810;8.818;2023-02-01T10:49:05;7.60;67.20
50548;DHT22;38013;48.810;8.818;2023-02-01T10:51:39;7.60;66.80
50548;DHT22;38013;48.810;8.818;2023-02-01T10:54:11;7.60;66.30
50548;DHT22;38013;48.810;8.818;2023-02-01T10:56:43;7.60;67.80
50548;DHT22;38013;48.810;8.818;2023-02-01T10:59:17;7.60;67.10
50548;DHT22;38013;48.810;8.818;2023-02-01T11:01:46;7.70;67.90
50548;DHT22;38013;48.810;8.818;2023-02-01T11:04:14;7.60;68.20
50548;DHT22;38013;48.810;8.818;2023-02-01T11:06:51;7.70;67.50
50548;DHT22;38013;48.810;8.818;2023-02-01T11:09:21;7.70;67.10
50548;DHT22;38013;48.810;8.818;2023-02-01T11:14:17;7.70;67.30
50548;DHT22;38013;48.810;8.818;2023-02-01T11:16:49;7.70;66.60
50548;DHT22;38013;48.810;8.818;2023-02-01T11:19:35;7.70;68.40
50548;DHT22;38013;48.810;8.818;2023-02-01T11:22:03;7.70;66.40
50548;DHT22;38013;48.810;8.818;2023-02-01T11:24:34;7.80;66.60
50548;DHT22;38013;48.810;8.818;2023-02-01T11:27:02;7.80;66.60
50548;DHT22;38013;48.810;8.818;2023-02-01T11:29:35;7.90;67.20
50548;DHT22;38013;48.810;8.818;2023-02-01T11:32:03;7.90;67.90
50548;DHT22;38013;48.810;8.818;2023-02-01T11:34:38;7.90;66.80
50548;DHT22;38013;48.810;8.818;2023-02-01T11:37:15;8.00;66.90
50548;DHT22;38013;48.810;8.818;2023-02-01T11:39:52;8.00;67.40
50548;DHT22;38013;48.810;8.818;2023-02-01T11:42:23;8.00;66.30
50548;DHT22;38013;48.810;8.818;2023-02-01T11:44:51;8.00;65.10
50548;DHT22;38013;48.810;8.818;2023-02-01T11:47:42;8.00;64.50
50548;DHT22;38013;48.810;8.818;2023-02-01T11:50:15;8.00;65.60
50548;DHT22;38013;48.810;8.818;2023-02-01T11:53:01;8.00;65.90
50548;DHT22;38013;48.810;8.818;2023-02-01T12:05:59;7.90;64.90
50548;DHT22;38013;48.810;8.818;2023-02-01T12:08:43;7.90;65.10
50548;DHT22;38013;48.810;8.818;2023-02-01T12:14:12;8.00;65.50
50548;DHT22;38013;48.810;8.818;2023-02-01T12:22:26;7.90;65.30
50548;DHT22;38013;48.810;8.818;2023-02-01T12:31:04;7.90;65.10
50548;DHT22;38013;48.810;8.818;2023-02-01T12:42:40;7.70;65.60
50548;DHT22;38013;48.810;8.818;2023-02-01T12:45:26;7.70;65.30
50548;DHT22;38013;48.810;8.818;2023-02-01T12:48:08;7.70;65.20
50548;DHT22;38013;48.810;8.818;2023-02-01T12:50:47;7.60;66.20
50548;DHT22;38013;48.810;8.818;2023-02-01T12:53:27;7.60;65.90
50548;DHT22;38013;48.810;8.818;2023-02-01T12:56:18;7.50;66.40
50548;DHT22;38013;48.810;8.818;2023-02-01T12:58:48;7.50;66.30
50548;DHT22;38013;48.810;8.818;2023-02-01T13:01:28;7.50;66.40
50548;DHT22;38013;48.810;8.818;2023-02-01T13:04:16;7.50;66.60
50548;DHT22;38013;48.810;8.818;2023-02-01T13:06:51;7.60;67.00
50548;DHT22;38013;48.810;8.818;2023-02-01T13:09:39;7.60;66.20
50548;DHT22;38013;48.810;8.818;2023-02-01T13:12:13;7.60;66.00
50548;DHT22;38013;48.810;8.818;2023-02-01T13:14:47;7.60;66.20
50548;DHT22;38013;48.810;8.818;2023-02-01T13:17:23;7.60;66.30
50548;DHT22;38013;48.810;8.818;2023-02-01T13:19:56;7.60;66.50
50548;DHT22;38013;48.810;8.818;2023-02-01T13:22:33;7.60;66.80
50548;DHT22;38013;48.810;8.818;2023-02-01T13:25:17;7.60;66.60
50548;DHT22;38013;48.810;8.818;2023-02-01T13:27:45;7.60;66.90
50548;DHT22;38013;48.810;8.818;2023-02-01T13:30:15;7.60;67.10
50548;DHT22;38013;48.810;8.818;2023-02-01T13:44:03;7.50;68.10
50548;DHT22;38013;48.810;8.818;2023-02-01T13:46:39;7.50;68.00
50548;DHT22;38013;48.810;8.818;2023-02-01T13:49:14;7.40;67.50
50548;DHT22;38013;48.810;8.818;2023-02-01T13:51:54;7.40;67.80
50548;DHT22;38013;48.810;8.818;2023-02-01T13:56:59;7.50;67.00
50548;DHT22;38013;48.810;8.818;2023-02-01T13:59:35;7.60;66.90
50548;DHT22;38013;48.810;8.818;2023-02-01T14:07:36;7.70;66.70
50548;DHT22;38013;48.810;8.818;2023-02-01T14:13:52;7.70;66.80
50548;DHT22;38013;48.810;8.818;2023-02-01T14:21:54;7.80;66.20
50548;DHT22;38013;48.810;8.818;2023-02-01T14:24:00;7.80;66.40
50548;DHT22;38013;48.810;8.818;2023-02-01T14:37:02;7.80;66.40
50548;DHT22;38013;48.810;8.818;2023-02-01T14:42:00;7.70;66.90
50548;DHT22;38013;48.810;8.818;2023-02-01T14:44:31;7.70;66.70
50548;DHT22;38013;48.810;8.818;2023-02-01T14:49:33;7.60;66.30
50548;DHT22;38013;48.810;8.818;2023-02-01T14:52:02;7.60;66.20
50548;DHT22;38013;48.810;8.818;2023-02-01T14:54:32;7.60;66.50
50548;DHT22;38013;48.810;8.818;2023-02-01T14:56:59;7.60;66.30
50548;DHT22;38013;48.810;8.818;2023-02-01T14:59:26;7.50;65.80
50548;DHT22;38013;48.810;8.818;2023-02-01T15:01:59;7.50;66.10
50548;DHT22;38013;48.810;8.818;2023-02-01T15:04:27;7.50;66.30
50548;DHT22;38013;48.810;8.818;2023-02-01T15:06:57;7.50;65.80
50548;DHT22;38013;48.810;8.818;2023-02-01T15:09:35;7.50;65.50
50548;DHT22;38013;48.810;8.818;2023-02-01T15:14:32;7.50;65.90
50548;DHT22;38013;48.810;8.818;2023-02-01T15:17:01;7.50;66.50
50548;DHT22;38013;48.810;8.818;2023-02-01T15:19:29;7.60;66.30
50548;DHT22;38013;48.810;8.818;2023-02-01T15:21:57;7.70;65.80
50548;DHT22;38013;48.810;8.818;2023-02-01T15:24:25;7.70;65.70
50548;DHT22;38013;48.810;8.818;2023-02-01T15:26:53;7.80;66.00
50548;DHT22;38013;48.810;8.818;2023-02-01T15:29:21;7.90;66.40
50548;DHT22;38013;48.810;8.818;2023-02-01T15:31:52;7.90;65.10
50548;DHT22;38013;48.810;8.818;2023-02-01T15:34:19;8.00;64.70
50548;DHT22;38013;48.810;8.818;2023-02-01T15:36:47;8.00;64.70
50548;DHT22;38013;48.810;8.818;2023-02-01T15:39:28;8.10;64.30
50548;DHT22;38013;48.810;8.818;2023-02-01T15:41:58;8.10;64.90
50548;DHT22;38013;48.810;8.818;2023-02-01T15:44:37;8.10;64.20
50548;DHT22;38013;48.810;8.818;2023-02-01T15:47:19;8.00;64.20
50548;DHT22;38013;48.810;8.818;2023-02-01T15:49:51;8.00;64.80
50548;DHT22;38013;48.810;8.818;2023-02-01T15:52:26;8.00;64.00
50548;DHT22;38013;48.810;8.818;2023-02-01T15:55:00;7.90;64.40
50548;DHT22;38013;48.810;8.818;2023-02-01T15:57:32;7.90;64.50
50548;DHT22;38013;48.810;8.818;2023-02-01T16:00:05;7.80;63.50
50548;DHT22;38013;48.810;8.818;2023-02-01T16:02:51;7.80;64.00
50548;DHT22;38013;48.810;8.818;2023-02-01T16:05:34;7.70;63.50
50548;DHT22;38013;48.810;8.818;2023-02-01T16:08:06;7.60;63.70
50548;DHT22;38013;48.810;8.818;2023-02-01T16:10:41;7.60;63.50
50548;DHT22;38013;48.810;8.818;2023-02-01T16:13:12;7.50;63.90
50548;DHT22;38013;48.810;8.818;2023-02-01T16:15:40;7.50;64.20
50548;DHT22;38013;48.810;8.818;2023-02-01T16:18:07;7.50;64.00
50548;DHT22;38013;48.810;8.818;2023-02-01T16:20:35;7.40;64.00
50548;DHT22;38013;48.810;8.818;2023-02-01T16:23:03;7.40;64.10
50548;DHT22;38013;48.810;8.818;2023-02-01T16:25:30;7.40;64.70
50548;DHT22;38013;48.810;8.818;2023-02-01T16:27:57;7.30;64.30
50548;DHT22;38013;48.810;8.818;2023-02-01T16:30:24;7.30;64.40
50548;DHT22;38013;48.810;8.818;2023-02-01T16:32:54;7.30;64.60
50548;DHT22;38013;48.810;8.818;2023-02-01T16:35:26;7.30;64.40
50548;DHT22;38013;48.810;8.818;2023-02-01T16:37:54;7.30;65.70
50548;DHT22;38013;48.810;8.818;2023-02-01T16:40:21;7.30;64.70
50548;DHT22;38013;48.810;8.818;2023-02-01T16:42:50;7.30;65.00
50548;DHT22;38013;48.810;8.818;2023-02-01T16:45:18;7.30;65.30
50548;DHT22;38013;48.810;8.818;2023-02-01T16:47:46;7.20;64.80
50548;DHT22;38013;48.810;8.818;2023-02-01T16:50:18;7.20;64.80
50548;DHT22;38013;48.810;8.818;2023-02-01T16:52:49;7.20;65.40
50548;DHT22;38013;48.810;8.818;2023-02-01T16:55:18;7.20;65.10
50548;DHT22;38013;48.810;8.818;2023-02-01T16:57:45;7.20;65.30
50548;DHT22;38013;48.810;8.818;2023-02-01T17:00:12;7.20;64.60
50548;DHT22;38013;48.810;8.818;2023-02-01T17:02:51;7.20;65.30
50548;DHT22;38013;48.810;8.818;2023-02-01T17:05:19;7.20;65.20
50548;DHT22;38013;48.810;8.818;2023-02-01T17:07:45;7.20;64.80
50548;DHT22;38013;48.810;8.818;2023-02-01T17:10:21;7.20;65.50
50548;DHT22;38013;48.810;8.818;2023-02-01T17:13:00;7.20;65.00
50548;DHT22;38013;48.810;8.818;2023-02-01T17:15:27;7.20;65.10
50548;DHT22;38013;48.810;8.818;2023-02-01T17:18:00;7.20;65.50
50548;DHT22;38013;48.810;8.818;2023-02-01T17:20:28;7.20;65.20
50548;DHT22;38013;48.810;8.818;2023-02-01T17:22:58;7.30;65.50
50548;DHT22;38013;48.810;8.818;2023-02-01T17:25:25;7.30;65.50
50548;DHT22;38013;48.810;8.818;2023-02-01T17:27:53;7.30;65.50
50548;DHT22;38013;48.810;8.818;2023-02-01T17:30:20;7.30;65.40
50548;DHT22;38013;48.810;8.818;2023-02-01T17:32:47;7.30;65.60
50548;DHT22;38013;48.810;8.818;2023-02-01T17:35:22;7.30;65.70
50548;DHT22;38013;48.810;8.818;2023-02-01T17:37:51;7.30;65.90
50548;DHT22;38013;48.810;8.818;2023-02-01T17:40:18;7.30;65.90
50548;DHT22;38013;48.810;8.818;2023-02-01T17:42:45;7.30;65.80
50548;DHT22;38013;48.810;8.818;2023-02-01T17:45:56;7.30;65.90
50548;DHT22;38013;48.810;8.818;2023-02-01T17:48:04;7.20;65.70
50548;DHT22;38013;48.810;8.818;2023-02-01T17:50:33;7.30;66.00
50548;DHT22;38013;48.810;8.818;2023-02-01T17:53:03;7.30;66.20
50548;DHT22;38013;48.810;8.818;2023-02-01T17:55:32;7.20;65.70
50548;DHT22;38013;48.810;8.818;2023-02-01T17:58:00;7.20;66.00
50548;DHT22;38013;48.810;8.818;2023-02-01T18:00:26;7.20;66.10
50548;DHT22;38013;48.810;8.818;2023-02-01T18:02:53;7.20;66.40
50548;DHT22;38013;48.810;8.818;2023-02-01T18:05:31;7.20;66.40
50548;DHT22;38013;48.810;8.818;2023-02-01T18:08:08;7.20;66.60
50548;DHT22;38013;48.810;8.818;2023-02-01T18:10:35;7.20;66.70
50548;DHT22;38013;48.810;8.818;2023-02-01T18:13:02;7.20;66.60
50548;DHT22;38013;48.810;8.818;2023-02-01T18:15:29;7.20;66.20
50548;DHT22;38013;48.810;8.818;2023-02-01T18:17:57;7.20;66.50